createdAt,value
2019-03-15T00:01:35.618Z,3.40
2019-03-15T00:04:04.631Z,3.17
2019-03-15T00:06:33.533Z,4.50
2019-03-15T00:09:02.553Z,3.30
2019-03-15T00:11:31.515Z,2.73
2019-03-15T00:14:00.370Z,3.87
2019-03-15T00:16:29.263Z,3.73
2019-03-15T00:18:58.114Z,4.30
2019-03-15T00:21:27.024Z,3.93
2019-03-15T00:23:56.022Z,3.93
2019-03-15T00:26:25.049Z,3.30
2019-03-15T00:28:53.956Z,2.90
2019-03-15T00:31:23.018Z,3.60
2019-03-15T00:33:51.998Z,4.20
2019-03-15T00:36:21.093Z,3.40
2019-03-15T00:38:50.093Z,2.80
2019-03-15T00:41:19.358Z,3.67
2019-03-15T00:43:49.589Z,2.40
2019-03-15T00:46:18.833Z,3.80
2019-03-15T00:48:47.716Z,3.30
2019-03-15T00:51:16.597Z,2.67
2019-03-15T00:53:45.531Z,4.87
2019-03-15T00:56:14.369Z,2.40
2019-03-15T00:58:43.318Z,3.80
2019-03-15T01:01:12.197Z,2.57
2019-03-15T01:03:41.050Z,3.60
2019-03-15T01:06:09.870Z,3.20
2019-03-15T01:08:38.720Z,3.80
2019-03-15T01:11:07.629Z,3.30
2019-03-15T01:13:37.029Z,3.10
2019-03-15T01:16:06.235Z,2.53
2019-03-15T01:18:35.173Z,2.50
2019-03-15T01:21:04.115Z,2.40
2019-03-15T01:23:33.025Z,3.40
2019-03-15T01:26:01.862Z,2.63
2019-03-15T01:28:30.676Z,3.27
2019-03-15T01:30:59.482Z,2.93
2019-03-15T01:33:28.251Z,3.13
2019-03-15T01:35:57.090Z,2.50
2019-03-15T01:38:26.063Z,2.67
2019-03-15T01:40:54.868Z,3.50
2019-03-15T01:43:23.728Z,2.70
2019-03-15T01:45:52.969Z,3.83
2019-03-15T01:48:21.816Z,3.33
2019-03-15T01:50:50.634Z,3.03
2019-03-15T01:53:19.434Z,2.80
2019-03-15T01:55:48.213Z,2.63
2019-03-15T01:58:17.035Z,3.10
2019-03-15T02:00:45.815Z,2.23
2019-03-15T02:03:14.632Z,2.80
2019-03-15T02:05:43.416Z,3.17
2019-03-15T02:08:12.326Z,2.90
2019-03-15T02:10:41.238Z,3.13
2019-03-15T02:13:10.337Z,2.40
2019-03-15T02:15:39.274Z,3.30
2019-03-15T02:18:08.082Z,2.70
2019-03-15T02:20:36.974Z,3.00
2019-03-15T02:23:05.951Z,3.50
2019-03-15T02:25:34.855Z,2.70
2019-03-15T02:28:03.678Z,2.47
2019-03-15T02:30:32.486Z,3.40
2019-03-15T02:33:01.416Z,2.70
2019-03-15T02:35:30.308Z,4.00
2019-03-15T02:38:00.158Z,2.90
2019-03-15T02:40:29.137Z,2.47
2019-03-15T02:42:57.949Z,2.33
2019-03-15T02:45:26.919Z,3.63
2019-03-15T02:47:55.763Z,3.50
2019-03-15T02:50:24.713Z,3.47
2019-03-15T02:52:53.526Z,4.43
2019-03-15T02:55:22.374Z,3.67
2019-03-15T02:57:51.202Z,3.93
2019-03-15T03:00:20.210Z,2.87
2019-03-15T03:02:49.046Z,3.80
2019-03-15T03:05:17.952Z,3.53
2019-03-15T03:07:48.146Z,3.33
2019-03-15T03:10:17.433Z,4.03
2019-03-15T03:12:46.279Z,3.50
2019-03-15T03:15:15.188Z,3.87
2019-03-15T03:17:44.018Z,3.10
2019-03-15T03:20:13.001Z,3.43
2019-03-15T03:22:42.067Z,3.60
2019-03-15T03:25:11.198Z,2.90
2019-03-15T03:27:40.039Z,3.53
2019-03-15T03:30:09.283Z,3.33
2019-03-15T03:32:38.215Z,3.77
2019-03-15T03:35:09.509Z,2.40
2019-03-15T03:37:37.926Z,3.20
2019-03-15T03:40:07.312Z,3.63
2019-03-15T03:42:36.195Z,4.07
2019-03-15T03:45:05.233Z,4.07
2019-03-15T03:47:34.254Z,4.00
2019-03-15T03:50:03.378Z,3.93
2019-03-15T03:52:32.190Z,3.80
2019-03-15T03:55:01.149Z,3.07
2019-03-15T03:57:30.153Z,3.50
2019-03-15T03:59:59.186Z,3.87
2019-03-15T04:02:28.669Z,3.87
2019-03-15T04:04:57.793Z,4.93
2019-03-15T04:07:26.678Z,4.07
2019-03-15T04:09:55.508Z,3.50
2019-03-15T04:12:24.402Z,4.63
2019-03-15T04:14:53.237Z,3.80
2019-03-15T04:17:22.232Z,3.60
2019-03-15T04:19:51.186Z,4.10
2019-03-15T04:22:19.994Z,3.97
2019-03-15T04:24:49.017Z,4.23
2019-03-15T04:27:17.909Z,4.07
2019-03-15T04:29:46.772Z,2.90
2019-03-15T04:32:15.642Z,4.27
2019-03-15T04:34:44.456Z,3.50
2019-03-15T04:37:13.331Z,3.30
2019-03-15T04:39:42.139Z,4.80
2019-03-15T04:42:11.159Z,3.20
2019-03-15T04:44:40.261Z,2.80
2019-03-15T04:47:09.305Z,2.80
2019-03-15T04:49:38.213Z,3.30
2019-03-15T04:52:07.245Z,2.23
2019-03-15T04:54:36.033Z,3.30
2019-03-15T04:57:04.994Z,2.80
2019-03-15T04:59:33.890Z,2.40
2019-03-15T05:02:02.695Z,2.70
2019-03-15T05:04:31.628Z,2.80
2019-03-15T05:07:00.518Z,2.63
2019-03-15T05:09:29.331Z,2.23
2019-03-15T05:11:58.162Z,2.90
2019-03-15T05:14:27.018Z,2.47
2019-03-15T05:16:56.060Z,2.67
2019-03-15T05:19:25.214Z,3.40
2019-03-15T05:21:54.052Z,2.20
2019-03-15T05:24:22.895Z,2.23
2019-03-15T05:26:51.781Z,2.47
2019-03-15T05:29:20.586Z,2.10
2019-03-15T05:31:49.568Z,2.00
2019-03-15T05:34:18.453Z,2.50
2019-03-15T05:36:47.264Z,2.17
2019-03-15T05:39:16.251Z,2.93
2019-03-15T05:41:45.225Z,2.10
2019-03-15T05:44:14.049Z,2.20
2019-03-15T05:46:42.882Z,2.70
2019-03-15T05:49:11.739Z,2.27
2019-03-15T05:51:40.634Z,2.57
2019-03-15T05:54:09.520Z,2.67
2019-03-15T05:56:38.438Z,3.30
2019-03-15T05:59:07.260Z,3.23
2019-03-15T06:01:36.106Z,2.50
2019-03-15T06:04:05.241Z,2.67
2019-03-15T06:06:34.098Z,2.87
2019-03-15T06:09:03.779Z,3.40
2019-03-15T06:11:32.672Z,2.37
2019-03-15T06:14:01.588Z,3.03
2019-03-15T06:16:30.466Z,3.60
2019-03-15T06:18:59.439Z,2.80
2019-03-15T06:21:28.406Z,3.17
2019-03-15T06:23:57.249Z,3.30
2019-03-15T06:26:26.055Z,3.00
2019-03-15T06:28:55.094Z,3.30
2019-03-15T06:31:23.910Z,2.83
2019-03-15T06:33:52.753Z,3.10
2019-03-15T06:36:21.578Z,3.10
2019-03-15T06:38:50.612Z,3.30
2019-03-15T06:41:19.462Z,3.03
2019-03-15T06:43:48.327Z,3.30
2019-03-15T06:46:17.279Z,4.40
2019-03-15T06:48:46.400Z,4.37
2019-03-15T06:51:15.318Z,4.40
2019-03-15T06:53:47.486Z,3.60
2019-03-15T06:56:14.738Z,4.03
2019-03-15T06:58:43.561Z,5.27
2019-03-15T07:01:12.437Z,3.90
2019-03-15T07:03:41.249Z,3.60
2019-03-15T07:06:10.171Z,3.33
2019-03-15T07:08:39.883Z,4.13
2019-03-15T07:11:09.090Z,3.77
2019-03-15T07:13:37.910Z,4.00
2019-03-15T07:16:06.762Z,4.57
2019-03-15T07:18:35.754Z,4.40
2019-03-15T07:21:04.929Z,4.27
2019-03-15T07:23:33.807Z,3.80
2019-03-15T07:26:02.715Z,4.03
2019-03-15T07:28:31.546Z,4.30
2019-03-15T07:31:00.426Z,4.40
2019-03-15T07:33:29.339Z,4.00
2019-03-15T07:35:59.488Z,4.83
2019-03-15T07:38:28.658Z,4.73
2019-03-15T07:40:57.462Z,4.30
2019-03-15T07:43:26.295Z,4.00
2019-03-15T07:45:55.118Z,4.27
2019-03-15T07:48:26.810Z,3.23
2019-03-15T07:50:54.742Z,3.47
2019-03-15T07:53:23.642Z,3.47
2019-03-15T07:55:52.477Z,2.70
2019-03-15T07:58:21.307Z,2.67
2019-03-15T08:00:50.357Z,2.97
2019-03-15T08:03:19.182Z,3.33
2019-03-15T08:05:48.020Z,2.97
2019-03-15T08:08:17.062Z,2.33
2019-03-15T08:10:46.015Z,3.10
2019-03-15T08:13:14.837Z,2.40
2019-03-15T08:15:43.765Z,2.80
2019-03-15T08:18:12.607Z,4.43
2019-03-15T08:20:41.493Z,2.60
2019-03-15T08:23:10.386Z,2.80
2019-03-15T08:25:39.195Z,3.57
2019-03-15T08:28:08.179Z,3.67
2019-03-15T08:30:37.108Z,4.57
2019-03-15T08:33:10.413Z,3.00
2019-03-15T08:35:36.631Z,2.77
2019-03-15T08:38:05.587Z,3.57
2019-03-15T08:40:34.646Z,4.00
2019-03-15T08:43:03.453Z,3.40
2019-03-15T08:45:32.449Z,3.00
2019-03-15T08:48:01.429Z,3.50
2019-03-15T08:50:30.362Z,3.83
2019-03-15T08:52:59.214Z,3.33
2019-03-15T08:55:28.026Z,3.40
2019-03-15T08:57:56.858Z,3.90
2019-03-15T09:00:25.693Z,4.07
2019-03-15T09:02:54.558Z,4.03
2019-03-15T09:05:23.567Z,4.00
2019-03-15T09:07:52.457Z,3.73
2019-03-15T09:10:23.545Z,4.80
2019-03-15T09:12:51.917Z,4.40
2019-03-15T09:15:20.816Z,3.50
2019-03-15T09:17:49.743Z,4.13
2019-03-15T09:20:18.749Z,3.90
2019-03-15T09:22:47.718Z,3.50
2019-03-15T09:25:19.776Z,3.43
2019-03-15T09:27:47.263Z,4.67
2019-03-15T09:30:24.480Z,4.90
2019-03-15T09:32:47.352Z,4.57
2019-03-15T09:35:16.176Z,4.03
2019-03-15T09:37:47.247Z,4.27
2019-03-15T09:40:16.183Z,3.93
2019-03-15T09:42:45.220Z,3.87
2019-03-15T09:45:14.627Z,3.50
2019-03-15T09:47:43.564Z,3.67
2019-03-15T09:50:22.975Z,4.50
2019-03-15T09:52:43.728Z,5.33
2019-03-15T09:55:13.123Z,4.80
2019-03-15T09:57:42.087Z,4.10
2019-03-15T10:00:13.918Z,4.17
2019-03-15T10:02:42.947Z,4.57
2019-03-15T10:05:12.153Z,4.60
2019-03-15T10:07:43.296Z,3.80
2019-03-15T10:10:14.135Z,3.80
2019-03-15T10:12:43.322Z,4.60
2019-03-15T10:15:12.486Z,4.30
2019-03-15T10:17:41.463Z,3.87
2019-03-15T10:20:12.569Z,4.97
2019-03-15T10:22:41.149Z,4.80
2019-03-15T10:25:10.324Z,4.00
2019-03-15T10:27:39.188Z,3.30
2019-03-15T10:30:10.035Z,5.30
2019-03-15T10:32:38.969Z,5.60
2019-03-15T10:35:07.982Z,4.37
2019-03-15T10:37:36.898Z,4.20
2019-03-15T10:40:07.009Z,4.70
2019-03-15T10:45:34.134Z,4.83
2019-03-15T10:48:03.426Z,5.10
2019-03-15T10:50:32.353Z,3.43
2019-03-15T10:53:01.300Z,4.87
2019-03-15T10:55:30.201Z,4.80
2019-03-15T10:57:59.074Z,4.10
2019-03-15T11:00:28.969Z,5.63
2019-03-15T11:02:57.937Z,4.70
2019-03-15T11:05:26.853Z,4.37
2019-03-15T11:07:55.848Z,4.80
2019-03-15T11:10:24.784Z,5.50
2019-03-15T11:12:56.695Z,4.83
2019-03-15T11:15:25.694Z,4.50
2019-03-15T11:17:54.552Z,3.90
2019-03-15T11:20:23.490Z,5.00
2019-03-15T11:22:52.374Z,4.93
2019-03-15T11:25:21.421Z,4.37
2019-03-15T11:27:50.500Z,5.37
2019-03-15T11:30:19.529Z,4.87
2019-03-15T11:32:48.361Z,4.77
2019-03-15T11:35:17.386Z,4.60
2019-03-15T11:37:46.378Z,4.40
2019-03-15T11:40:18.554Z,4.83
2019-03-15T11:42:46.188Z,3.73
2019-03-15T11:45:15.202Z,4.97
2019-03-15T11:48:01.954Z,3.60
2019-03-15T11:50:14.725Z,4.33
2019-03-15T11:52:43.653Z,5.47
2019-03-15T11:55:12.645Z,3.97
2019-03-15T11:57:41.642Z,5.13
2019-03-15T12:00:11.453Z,4.53
2019-03-15T12:02:40.342Z,4.53
2019-03-15T12:05:09.322Z,5.23
2019-03-15T12:07:38.262Z,4.70
2019-03-15T12:10:07.466Z,4.60
2019-03-15T12:12:36.395Z,6.10
2019-03-15T12:15:06.202Z,4.67
2019-03-15T12:17:35.017Z,5.67
2019-03-15T12:20:04.210Z,4.20
2019-03-15T12:22:33.054Z,4.80
2019-03-15T12:25:01.908Z,4.30
2019-03-15T12:27:30.749Z,5.13
2019-03-15T12:29:59.578Z,3.57
2019-03-15T12:32:28.543Z,4.50
2019-03-15T12:34:57.498Z,5.03
2019-03-15T12:37:26.505Z,4.43
2019-03-15T12:39:55.421Z,3.90
2019-03-15T12:42:24.330Z,5.17
2019-03-15T12:44:53.250Z,4.70
2019-03-15T12:47:22.173Z,4.20
2019-03-15T12:49:51.083Z,4.03
2019-03-15T12:52:20.757Z,4.33
2019-03-15T12:54:50.097Z,4.03
2019-03-15T12:57:19.096Z,3.63
2019-03-15T12:59:48.039Z,4.57
2019-03-15T13:02:20.079Z,4.33
2019-03-15T13:04:47.614Z,3.17
2019-03-15T13:07:16.455Z,4.90
2019-03-15T13:09:45.385Z,4.57
2019-03-15T13:12:14.270Z,3.47
2019-03-15T13:14:43.105Z,4.10
2019-03-15T13:17:12.047Z,3.73
2019-03-15T13:19:54.250Z,5.23
2019-03-15T13:22:11.597Z,4.33
2019-03-15T13:24:40.425Z,3.90
2019-03-15T13:27:09.263Z,4.30
2019-03-15T13:29:38.373Z,4.13
2019-03-15T13:32:07.287Z,5.50
2019-03-15T13:34:36.332Z,4.70
2019-03-15T13:37:05.337Z,4.70
2019-03-15T13:39:34.318Z,4.83
2019-03-15T13:42:03.244Z,4.20
2019-03-15T13:44:32.209Z,4.20
2019-03-15T13:47:01.067Z,4.80
2019-03-15T13:49:29.906Z,4.67
2019-03-15T13:51:58.762Z,4.50
2019-03-15T13:54:27.669Z,5.57
2019-03-15T13:56:56.610Z,4.67
2019-03-15T13:59:25.522Z,5.13
2019-03-15T14:01:54.428Z,4.60
2019-03-15T14:04:23.348Z,5.20
2019-03-15T14:06:52.262Z,4.60
2019-03-15T14:09:21.208Z,5.73
2019-03-15T14:11:50.034Z,5.53
2019-03-15T14:14:18.864Z,7.33
2019-03-15T14:16:47.701Z,6.40
2019-03-15T14:19:16.593Z,5.70
2019-03-15T14:21:48.482Z,6.03
2019-03-15T14:24:16.090Z,6.30
2019-03-15T14:26:44.930Z,6.57
2019-03-15T14:29:13.833Z,6.70
2019-03-15T14:31:42.682Z,6.10
2019-03-15T14:34:11.522Z,5.53
2019-03-15T14:36:40.622Z,6.80
2019-03-15T14:39:09.823Z,5.10
2019-03-15T14:41:38.867Z,6.00
2019-03-15T14:44:07.988Z,4.67
2019-03-15T14:46:37.191Z,5.97
2019-03-15T14:49:06.023Z,4.93
2019-03-15T14:51:34.869Z,6.23
2019-03-15T14:54:03.781Z,4.93
2019-03-15T14:56:32.810Z,6.03
2019-03-15T14:59:01.651Z,5.40
2019-03-15T15:01:30.578Z,6.00
2019-03-15T15:03:59.656Z,5.03
2019-03-15T15:06:28.579Z,4.80
2019-03-15T15:08:57.412Z,4.63
2019-03-15T15:11:26.270Z,5.47
2019-03-15T15:13:55.236Z,6.27
2019-03-15T15:16:24.087Z,5.13
2019-03-15T15:18:52.926Z,5.10
2019-03-15T15:21:21.783Z,6.03
2019-03-15T15:23:50.706Z,5.50
2019-03-15T15:26:19.688Z,5.20
2019-03-15T15:28:48.615Z,5.40
2019-03-15T15:31:17.587Z,5.80
2019-03-15T15:33:46.458Z,5.40
2019-03-15T15:36:15.269Z,5.10
2019-03-15T15:38:44.228Z,5.57
2019-03-15T15:41:13.128Z,4.87
2019-03-15T15:43:41.971Z,5.10
2019-03-15T15:46:10.811Z,5.23
2019-03-15T15:48:39.717Z,5.77
2019-03-15T15:51:08.594Z,5.20
2019-03-15T15:53:37.604Z,5.10
2019-03-15T15:56:06.679Z,4.33
2019-03-15T15:58:35.565Z,6.03
2019-03-15T16:01:04.546Z,5.30
2019-03-15T16:03:33.375Z,5.10
2019-03-15T16:06:02.686Z,5.53
2019-03-15T16:08:31.522Z,4.60
2019-03-15T16:11:00.370Z,5.40
2019-03-15T16:13:29.190Z,4.67
2019-03-15T16:15:58.014Z,5.33
2019-03-15T16:18:27.160Z,4.50
2019-03-15T16:20:56.094Z,5.50
2019-03-15T16:23:25.094Z,4.30
2019-03-15T16:25:54.006Z,4.50
2019-03-15T16:28:31.317Z,4.47
2019-03-15T16:30:53.432Z,3.90
2019-03-15T16:33:22.314Z,5.97
2019-03-15T16:35:51.550Z,5.80
2019-03-15T16:38:20.498Z,5.27
2019-03-15T16:40:49.382Z,4.30
2019-03-15T16:43:18.413Z,4.90
2019-03-15T16:45:47.293Z,5.53
2019-03-15T16:48:16.182Z,4.50
2019-03-15T16:50:45.100Z,4.73
2019-03-15T16:53:14.103Z,4.00
2019-03-15T16:55:42.990Z,4.40
2019-03-15T16:58:11.873Z,5.37
2019-03-15T17:00:40.808Z,5.37
2019-03-15T17:03:09.739Z,4.17
2019-03-15T17:05:38.655Z,4.07
2019-03-15T17:08:07.598Z,4.20
2019-03-15T17:10:36.693Z,4.57
2019-03-15T17:13:05.733Z,4.00
2019-03-15T17:15:34.662Z,3.80
2019-03-15T17:18:03.873Z,3.70
2019-03-15T17:20:32.726Z,3.60
2019-03-15T17:23:01.597Z,4.00
2019-03-15T17:25:30.452Z,4.20
2019-03-15T17:27:59.601Z,4.13
2019-03-15T17:30:28.561Z,3.77
2019-03-15T17:32:57.403Z,3.33
2019-03-15T17:35:26.314Z,3.20
2019-03-15T17:37:55.227Z,3.77
2019-03-15T17:40:24.193Z,3.50
2019-03-15T17:42:53.134Z,3.20
2019-03-15T17:45:21.970Z,4.30
2019-03-15T17:47:50.805Z,2.50
2019-03-15T17:50:19.854Z,3.47
2019-03-15T17:52:48.797Z,2.93
2019-03-15T17:55:18.315Z,2.20
2019-03-15T17:57:47.430Z,3.40
2019-03-15T18:00:27.625Z,3.20
2019-03-15T18:02:56.578Z,3.60
2019-03-15T18:05:25.685Z,2.53
2019-03-15T18:07:54.635Z,3.23
2019-03-15T18:10:23.642Z,2.50
2019-03-15T18:12:52.659Z,2.87
2019-03-15T18:15:21.862Z,2.93
2019-03-15T18:17:50.862Z,3.30
2019-03-15T18:20:19.814Z,4.03
2019-03-15T18:22:48.741Z,2.87
2019-03-15T18:25:17.706Z,3.20
2019-03-15T18:27:46.867Z,2.97
2019-03-15T18:30:16.075Z,3.40
2019-03-15T18:32:44.993Z,4.00
2019-03-15T18:35:14.590Z,2.97
2019-03-15T18:37:43.628Z,3.60
2019-03-15T18:40:12.841Z,3.40
2019-03-15T18:42:42.192Z,3.57
2019-03-15T18:45:12.283Z,3.53
2019-03-15T18:47:41.293Z,3.13
2019-03-15T18:50:16.967Z,2.97
2019-03-15T18:52:45.882Z,2.83
2019-03-15T18:55:15.011Z,2.73
2019-03-15T18:57:44.062Z,3.33
2019-03-15T19:00:15.563Z,3.17
2019-03-15T19:02:44.408Z,3.07
2019-03-15T19:05:13.921Z,2.67
2019-03-15T19:07:43.018Z,2.70
2019-03-15T19:10:12.979Z,3.87
2019-03-15T19:12:42.012Z,2.73
2019-03-15T19:15:12.524Z,2.50
2019-03-15T19:17:41.521Z,3.00
2019-03-15T19:20:11.155Z,4.03
2019-03-15T19:22:40.427Z,5.30
2019-03-15T19:25:09.997Z,3.93
2019-03-15T19:27:39.202Z,4.90
2019-03-15T19:30:09.453Z,3.23
2019-03-15T19:32:38.437Z,2.90
2019-03-15T19:35:08.423Z,3.93
2019-03-15T19:37:37.645Z,3.27
2019-03-15T19:40:07.759Z,3.70
2019-03-15T19:42:36.623Z,3.03
2019-03-15T19:45:05.984Z,3.60
2019-03-15T19:47:34.822Z,4.17
2019-03-15T19:50:04.089Z,3.20
2019-03-15T19:52:32.947Z,3.23
2019-03-15T19:55:01.906Z,3.77
2019-03-15T19:57:30.818Z,4.03
2019-03-15T20:00:07.694Z,3.40
2019-03-15T20:02:30.517Z,3.73
2019-03-15T20:04:59.377Z,4.83
2019-03-15T20:07:28.368Z,2.93
2019-03-15T20:09:57.234Z,3.40
2019-03-15T20:12:26.267Z,2.97
2019-03-15T20:14:55.111Z,3.37
2019-03-15T20:17:24.103Z,3.80
2019-03-15T20:19:52.957Z,2.43
2019-03-15T20:22:21.895Z,2.30
2019-03-15T20:24:50.831Z,3.17
2019-03-15T20:27:19.795Z,3.37
2019-03-15T20:29:48.708Z,2.93
2019-03-15T20:32:17.666Z,2.63
2019-03-15T20:34:46.643Z,3.87
2019-03-15T20:37:15.593Z,3.20
2019-03-15T20:39:44.722Z,3.10
2019-03-15T20:42:13.579Z,3.67
2019-03-15T20:44:42.935Z,3.57
2019-03-15T20:47:11.914Z,3.30
2019-03-15T20:49:41.001Z,2.83
2019-03-15T20:52:09.860Z,2.67
2019-03-15T20:54:38.709Z,3.17
2019-03-15T20:57:07.738Z,2.90
2019-03-15T20:59:36.687Z,3.47
2019-03-15T21:02:05.675Z,3.57
2019-03-15T21:04:34.521Z,3.20
2019-03-15T21:07:03.384Z,3.03
2019-03-15T21:09:32.219Z,3.57
2019-03-15T21:12:01.276Z,2.60
2019-03-15T21:14:30.217Z,2.67
2019-03-15T21:16:59.090Z,3.20
2019-03-15T21:19:28.116Z,2.77
2019-03-15T21:21:56.960Z,3.30
2019-03-15T21:24:26.207Z,3.10
2019-03-15T21:26:55.178Z,3.70
2019-03-15T21:29:24.893Z,2.50
2019-03-15T21:31:54.850Z,3.90
2019-03-15T21:34:23.918Z,3.00
2019-03-15T21:36:52.877Z,3.47
2019-03-15T21:39:22.003Z,2.83
2019-03-15T21:41:51.298Z,3.60
2019-03-15T21:44:20.320Z,2.77
2019-03-15T21:46:49.294Z,3.20
2019-03-15T21:49:18.244Z,3.40
2019-03-15T21:51:47.139Z,3.47
2019-03-15T21:54:16.077Z,3.27
2019-03-15T21:56:44.910Z,3.03
2019-03-15T21:59:13.784Z,2.83
2019-03-15T22:01:42.853Z,3.27
2019-03-15T22:04:11.795Z,2.90
2019-03-15T22:06:40.633Z,3.23
2019-03-15T22:09:09.487Z,2.60
2019-03-15T22:11:38.318Z,3.60
2019-03-15T22:14:07.162Z,2.87
2019-03-15T22:16:36.086Z,2.93
2019-03-15T22:19:05.147Z,2.40
2019-03-15T22:21:34.085Z,3.00
2019-03-15T22:24:02.957Z,3.20
2019-03-15T22:26:31.938Z,3.43
2019-03-15T22:29:00.817Z,1.87
2019-03-15T22:31:29.705Z,2.17
2019-03-15T22:33:58.712Z,2.33
2019-03-15T22:36:27.589Z,2.97
2019-03-15T22:38:56.410Z,2.63
2019-03-15T22:41:25.274Z,2.70
2019-03-15T22:43:54.212Z,2.63
2019-03-15T22:46:23.145Z,2.50
2019-03-15T22:48:52.076Z,2.70
2019-03-15T22:51:21.063Z,2.60
2019-03-15T22:53:49.959Z,2.30
2019-03-15T22:56:18.794Z,2.47
2019-03-15T22:58:47.703Z,2.07
2019-03-15T23:01:29.295Z,2.97
2019-03-15T23:03:47.265Z,2.47
2019-03-15T23:06:35.319Z,2.13
2019-03-15T23:09:06.229Z,2.43
2019-03-15T23:11:35.295Z,2.80
2019-03-15T23:14:04.310Z,1.90
2019-03-15T23:16:33.204Z,4.90
2019-03-15T23:19:02.131Z,2.00
2019-03-15T23:21:30.931Z,3.90
2019-03-15T23:23:59.812Z,2.70
2019-03-15T23:26:28.644Z,2.30
2019-03-15T23:28:57.462Z,2.13
2019-03-15T23:31:26.270Z,2.70
2019-03-15T23:33:55.334Z,2.23
2019-03-15T23:36:24.229Z,2.13
2019-03-15T23:38:53.125Z,2.23
2019-03-15T23:41:22.007Z,2.60
2019-03-15T23:43:50.915Z,1.80
2019-03-15T23:46:19.971Z,2.00
2019-03-15T23:48:48.856Z,2.20
2019-03-15T23:51:17.779Z,1.93
2019-03-15T23:53:46.628Z,1.60
2019-03-15T23:56:15.534Z,1.97
2019-03-15T23:58:44.470Z,3.10
